Time;durP1;ratioP1;P1;durP2;ratioP2;P2;SDS_P1;SDS_P2;PMS_P1;PMS_P2;Temp;Humidity;BMP_temperature;BMP_pressure;BME280_temperature;BME280_humidity;BME280_pressure;Samples;Min_cycle;Max_cycle;Signal;HPM_P1;HPM_P2
2022/09/02 00:01:15;;;;;;;1.35;0.80;;;19.90;64.30;;;20.18;62.08;101058.31;5211492;28;20045;-86
2022/09/02 00:03:48;;;;;;;1.33;0.80;;;19.90;64.60;;;20.17;61.96;101057.44;5210728;28;20527;-86
2022/09/02 00:06:22;;;;;;;2.85;1.10;;;19.90;64.60;;;20.16;62.03;101060.97;5211102;28;20049;-87
2022/09/02 00:08:54;;;;;;;1.80;1.00;;;19.90;64.70;;;20.14;62.01;101056.53;5228077;28;20111;-87
2022/09/02 00:11:30;;;;;;;1.38;1.02;;;19.80;64.60;;;20.13;62.17;101054.78;5227745;28;20160;-86
2022/09/02 00:14:06;;;;;;;1.00;1.00;;;19.80;64.80;;;20.15;61.99;101055.66;5211053;28;20041;-85
2022/09/02 00:16:51;;;;;;;0.93;0.90;;;19.80;64.70;;;20.15;62.06;101053.91;5212038;28;20038;-86
2022/09/02 00:19:25;;;;;;;0.77;0.77;;;19.80;64.80;;;20.15;62.03;101056.56;5212561;28;20050;-87
2022/09/02 00:21:59;;;;;;;;;;;19.80;64.80;;;20.11;62.04;101052.16;5211100;28;20053;-86
2022/09/02 00:24:32;;;;;;;1.08;0.90;;;19.80;64.80;;;20.07;62.16;101047.72;5193650;28;20052;-87
2022/09/02 00:27:05;;;;;;;1.63;1.10;;;19.70;64.80;;;20.08;62.52;101046.84;5211498;28;20060;-85
2022/09/02 00:29:38;;;;;;;1.13;0.93;;;19.70;65.10;;;20.07;63.28;101045.06;5214436;28;20060;-86
2022/09/02 00:32:10;;;;;;;1.45;0.90;;;19.70;65.90;;;20.05;63.66;101041.56;5214617;28;20053;-88
2022/09/02 00:34:42;;;;;;;0.75;0.75;;;19.70;66.20;;;20.02;64.20;101044.22;5214533;28;20052;-86
2022/09/02 00:37:16;;;;;;;1.08;0.98;;;19.60;66.50;;;20.01;64.45;101039.78;5214053;28;20076;-86
2022/09/02 00:39:50;;;;;;;0.60;0.60;;;19.60;66.80;;;19.98;64.71;101039.81;5213959;28;20042;-86
2022/09/02 00:42:25;;;;;;;1.23;0.75;;;19.60;67.10;;;19.93;65.80;101045.09;5213274;28;20041;-87
2022/09/02 00:44:57;;;;;;;1.02;0.80;;;19.50;67.80;;;19.83;65.86;101035.41;5213926;28;20053;-85
2022/09/02 00:47:29;;;;;;;0.75;0.60;;;19.50;67.90;;;19.79;66.80;101039.78;5213967;28;20045;-86
2022/09/02 00:50:05;;;;;;;0.75;0.70;;;19.40;69.40;;;19.71;67.16;101041.53;5215142;28;20049;-87
2022/09/02 00:52:44;;;;;;;1.70;0.80;;;19.30;68.90;;;19.64;67.57;101034.50;5214520;28;20133;-87
2022/09/02 00:55:21;;;;;;;0.70;0.70;;;19.20;69.30;;;19.55;68.01;101037.06;5213752;28;20041;-87
2022/09/02 00:57:59;;;;;;;1.45;0.85;;;19.20;69.60;;;19.48;69.03;101027.34;5213280;28;20140;-86
2022/09/02 01:00:37;;;;;;;1.35;0.90;;;19.10;70.50;;;19.40;69.54;101023.81;5213940;28;20486;-87
2022/09/02 01:03:14;;;;;;;1.55;0.82;;;19.00;70.90;;;19.33;68.61;101029.97;5212278;28;20056;-86
2022/09/02 01:05:49;;;;;;;1.42;0.90;;;18.90;70.30;;;19.29;68.68;101025.56;5213451;28;20491;-85
2022/09/02 01:08:26;;;;;;;0.98;0.82;;;18.90;70.40;;;19.27;69.61;101028.19;5213787;28;20049;-88
2022/09/02 01:10:59;;;;;;;1.95;0.90;;;18.80;71.00;;;19.24;69.76;101039.66;5215043;28;20053;-88
2022/09/02 01:13:42;;;;;;;1.58;0.98;;;18.80;71.30;;;19.23;69.28;101037.91;5213198;28;20495;-87
2022/09/02 01:16:24;;;;;;;1.15;0.95;;;18.80;70.90;;;19.19;70.13;101036.09;5213150;28;20145;-88
2022/09/02 01:19:00;;;;;;;1.40;0.80;;;18.80;71.50;;;19.16;70.69;101038.72;5213415;28;20061;-86
2022/09/02 01:21:32;;;;;;;0.55;0.55;;;18.80;72.10;;;19.12;71.08;101039.59;5214180;28;20048;-87
2022/09/02 01:24:08;;;;;;;1.85;0.90;;;18.70;72.30;;;19.05;70.81;101039.59;5213274;28;20050;-87
2022/09/02 01:26:41;;;;;;;1.52;0.73;;;18.70;72.20;;;18.97;71.58;101039.53;5213455;28;20052;-87
2022/09/02 01:29:15;;;;;;;0.82;0.82;;;18.60;72.70;;;18.92;72.40;101036.00;5214783;28;20041;-85
2022/09/02 01:31:48;;;;;;;1.52;0.80;;;18.50;73.30;;;18.81;72.74;101024.50;5213290;28;20515;-87
2022/09/02 01:34:21;;;;;;;0.90;0.90;;;18.40;73.70;;;18.75;73.24;101029.75;5213500;28;20570;-86
2022/09/02 01:36:53;;;;;;;2.08;0.90;;;18.40;74.00;;;18.69;73.75;101039.41;5213228;28;20092;-85
2022/09/02 01:39:27;;;;;;;1.17;0.90;;;18.30;74.60;;;18.63;74.23;101033.16;5213087;28;20400;-85
2022/09/02 01:42:00;;;;;;;0.85;0.57;;;18.30;74.90;;;18.57;74.22;101028.72;5214255;28;20128;-86
2022/09/02 01:44:36;;;;;;;1.00;0.80;;;18.20;75.40;;;18.50;74.31;101031.31;5213351;28;20037;-87
2022/09/02 01:47:08;;;;;;;1.00;0.90;;;18.10;75.20;;;18.45;74.77;101028.66;5214290;28;20049;-85
2022/09/02 01:49:41;;;;;;;1.38;0.80;;;18.10;75.60;;;18.40;74.69;101022.47;5212928;28;20053;-87
2022/09/02 01:52:15;;;;;;;1.27;0.90;;;18.00;75.70;;;18.35;75.34;101019.81;5213799;28;20077;-87
2022/09/02 01:54:51;;;;;;;1.17;1.02;;;18.00;76.30;;;18.32;76.02;101013.59;5214224;28;20047;-86
2022/09/02 01:57:24;;;;;;;1.10;1.00;;;17.90;76.80;;;18.27;76.25;101020.63;5215370;28;20045;-86
2022/09/02 01:59:56;;;;;;;0.80;0.80;;;17.90;77.00;;;18.20;76.22;101014.44;5213593;28;20072;-86
2022/09/02 02:02:29;;;;;;;1.45;1.00;;;17.80;77.20;;;18.15;76.62;101009.13;5213385;28;20049;-86
2022/09/02 02:05:01;;;;;;;0.93;0.80;;;17.80;77.60;;;18.12;77.16;101013.47;5213972;28;20522;-86
2022/09/02 02:07:34;;;;;;;1.48;0.90;;;17.70;78.00;;;18.08;78.22;101016.97;5214680;28;20128;-86
2022/09/02 02:10:09;;;;;;;1.45;1.00;;;17.70;79.00;;;18.00;78.54;101013.41;5215677;28;20046;-87
2022/09/02 02:12:42;;;;;;;1.52;0.82;;;17.70;79.40;;;17.99;79.04;101014.25;5214684;28;20419;-85
2022/09/02 02:15:18;;;;;;;0.70;0.70;;;17.60;79.80;;;17.96;79.41;101015.13;5216549;28;20087;-86
2022/09/02 02:17:50;;;;;;;0.90;0.90;;;17.60;80.30;;;17.91;80.20;101019.47;5214321;28;20143;-86
2022/09/02 02:20:25;;;;;;;1.33;1.00;;;17.50;81.00;;;17.87;80.63;101017.69;5215058;28;20045;-86
2022/09/02 02:22:58;;;;;;;1.23;1.15;;;17.50;81.60;;;17.82;81.25;101015.00;5215504;28;20041;-87
2022/09/02 02:25:32;;;;;;;1.77;1.10;;;17.40;82.20;;;17.77;81.09;101015.84;5216554;28;20499;-87
2022/09/02 02:28:04;;;;;;;2.22;1.30;;;17.40;82.50;;;17.75;81.00;101017.59;5217717;28;20116;-87
2022/09/02 02:30:38;;;;;;;1.08;0.90;;;17.40;82.70;;;17.72;81.37;101021.06;5217796;28;20045;-86
2022/09/02 02:33:13;;;;;;;1.33;0.90;;;17.30;83.20;;;17.69;81.87;101023.66;5217230;28;20084;-87
2022/09/02 02:35:46;;;;;;;1.33;1.02;;;17.30;83.90;;;17.68;82.48;101027.16;5212215;28;20458;-86
2022/09/02 02:38:19;;;;;;;1.75;1.05;;;17.30;84.50;;;17.67;82.25;101019.22;5212034;28;20053;-86
2022/09/02 02:40:55;;;;;;;1.27;1.17;;;17.30;84.70;;;17.66;82.48;101023.59;5228361;28;20045;-85
2022/09/02 02:43:27;;;;;;;1.77;0.98;;;17.30;85.10;;;17.64;82.36;101017.44;5212302;28;20052;-86
2022/09/02 02:45:59;;;;;;;1.27;1.17;;;17.30;85.40;;;17.64;82.51;101018.31;5211438;28;20542;-87
2022/09/02 02:48:33;;;;;;;1.17;1.08;;;17.20;85.60;;;17.65;82.73;101019.19;5211975;28;20441;-87
2022/09/02 02:51:07;;;;;;;1.00;1.00;;;17.30;86.10;;;17.64;82.49;101023.59;5212036;28;20478;-86
2022/09/02 02:53:39;;;;;;;1.13;1.02;;;17.20;86.10;;;17.64;82.75;101020.97;5212211;28;20046;-87
2022/09/02 02:56:13;;;;;;;1.95;1.00;;;17.20;86.50;;;17.64;82.59;101014.81;5211448;28;20109;-86
2022/09/02 02:58:45;;;;;;;1.73;0.90;;;17.30;86.70;;;17.64;82.12;101020.06;5212379;28;20059;-86
2022/09/02 03:01:17;;;;;;;0.80;0.80;;;17.30;86.60;;;17.63;81.74;101016.56;5212379;28;20049;-86
2022/09/02 03:03:51;;;;;;;0.90;0.90;;;17.20;86.40;;;17.63;81.80;101019.19;5212369;28;20053;-88
2022/09/02 03:06:23;;;;;;;0.73;0.73;;;17.20;86.50;;;17.63;81.95;101019.19;5227985;28;20053;-87
2022/09/02 03:08:56;;;;;;;0.75;0.73;;;17.30;86.90;;;17.66;81.39;101012.16;5211224;28;20331;-87
2022/09/02 03:11:30;;;;;;;1.50;1.25;;;17.30;86.60;;;17.66;81.27;101014.81;5228082;28;20037;-87
2022/09/02 03:14:04;;;;;;;1.00;1.00;;;17.30;86.60;;;17.64;81.24;101023.59;5211093;28;20068;-86
2022/09/02 03:16:38;;;;;;;1.67;1.10;;;17.30;86.70;;;17.61;81.57;101018.31;5211043;28;20046;-87
2022/09/02 03:19:13;;;;;;;0.75;0.73;;;17.20;87.10;;;17.60;81.90;101013.91;5211556;28;20041;-86
2022/09/02 03:21:45;;;;;;;1.13;1.02;;;17.20;87.40;;;17.60;81.87;101013.91;5211237;28;20057;-85
2022/09/02 03:24:17;;;;;;;1.33;0.80;;;17.20;87.50;;;17.60;81.98;101019.19;5211102;28;20049;-87
2022/09/02 03:26:52;;;;;;;0.80;0.80;;;17.20;87.70;;;17.59;82.22;101011.22;5211260;28;20044;-85
2022/09/02 03:29:25;;;;;;;1.13;1.02;;;17.20;88.00;;;17.58;81.86;101010.34;5213708;28;20087;-87
2022/09/02 03:31:58;;;;;;;1.40;0.93;;;17.20;87.90;;;17.56;81.17;101011.22;5230608;28;20053;-84
2022/09/02 03:34:31;;;;;;;1.65;0.82;;;17.20;87.40;;;17.57;81.00;101013.88;5213749;28;20133;-86
2022/09/02 03:37:04;;;;;;;1.30;0.82;;;17.20;87.40;;;17.59;80.66;101017.38;5229545;28;20068;-86
2022/09/02 03:39:37;;;;;;;2.17;1.00;;;17.20;87.20;;;17.61;80.25;101010.41;5214110;28;20041;-86
2022/09/02 03:42:11;;;;;;;1.30;0.90;;;17.20;87.00;;;17.61;80.79;101009.50;5216391;28;20065;-87
2022/09/02 03:44:44;;;;;;;2.38;1.23;;;17.20;87.50;;;17.62;80.56;101003.38;5213383;28;20033;-85
2022/09/02 03:47:19;;;;;;;0.82;0.82;;;17.30;87.40;;;17.61;80.34;100999.84;5213008;28;20049;-84
2022/09/02 03:49:52;;;;;;;1.30;0.93;;;17.30;87.20;;;17.63;80.53;101003.38;5211715;28;20046;-85
2022/09/02 03:52:26;;;;;;;1.73;1.02;;;17.30;87.50;;;17.64;80.94;101002.50;5212067;28;20567;-86
2022/09/02 03:54:58;;;;;;;1.30;1.20;;;17.20;87.60;;;17.62;80.68;101001.63;5212952;28;20052;-86
2022/09/02 03:57:36;;;;;;;1.20;0.90;;;17.20;87.70;;;17.64;80.94;101002.50;5212729;28;20423;-85
2022/09/02 04:00:11;;;;;;;2.42;0.88;;;17.30;88.00;;;17.66;81.16;101012.16;5230087;28;20049;-86
2022/09/02 04:02:46;;;;;;;1.05;0.90;;;17.30;88.20;;;17.67;81.69;100998.13;5213760;28;20106;-85
2022/09/02 04:05:18;;;;;;;1.15;1.00;;;17.30;89.20;;;17.66;81.74;101001.63;5212847;28;20046;-87
2022/09/02 04:07:52;;;;;;;1.40;1.05;;;17.30;88.70;;;17.68;81.52;101005.19;5212187;28;20049;-86
2022/09/02 04:10:25;;;;;;;1.15;1.05;;;17.30;88.60;;;17.69;80.63;100996.41;5212160;28;20427;-86
2022/09/02 04:12:59;;;;;;;1.13;1.02;;;17.30;88.20;;;17.70;81.38;100992.88;5211812;28;20041;-85
2022/09/02 04:15:32;;;;;;;1.00;0.90;;;17.30;88.60;;;17.72;81.77;101001.72;5211018;28;20065;-85
2022/09/02 04:18:06;;;;;;;1.25;1.02;;;17.30;89.00;;;17.71;81.93;100999.94;5211437;28;20199;-86
2022/09/02 04:20:39;;;;;;;0.88;0.70;;;17.30;89.20;;;17.68;82.14;100994.63;5211073;28;20038;-86
2022/09/02 04:23:12;;;;;;;1.30;0.70;;;17.30;89.50;;;17.66;82.27;101001.63;5210475;28;20096;-86
2022/09/02 04:25:46;;;;;;;0.85;0.85;;;17.30;89.60;;;17.64;82.21;101005.13;5210900;28;20068;-85
2022/09/02 04:28:23;;;;;;;1.23;0.75;;;17.30;89.70;;;17.64;81.83;100997.22;5210898;28;20045;-87
2022/09/02 04:30:55;;;;;;;0.90;0.90;;;17.30;89.50;;;17.64;80.88;100994.59;5211438;28;20049;-86
2022/09/02 04:33:28;;;;;;;0.88;0.80;;;17.30;89.00;;;17.66;80.83;100991.97;5212350;28;20049;-86
2022/09/02 04:36:06;;;;;;;0.80;0.80;;;17.30;88.80;;;17.66;79.84;100997.25;5211260;28;20084;-87
2022/09/02 04:38:39;;;;;;;1.05;0.95;;;17.30;88.20;;;17.68;79.30;100997.28;5211418;28;20124;-86
2022/09/02 04:41:16;;;;;;;1.00;0.90;;;17.30;87.80;;;17.69;79.43;100991.13;5211497;28;20508;-86
2022/09/02 04:43:55;;;;;;;0.90;0.70;;;17.30;88.00;;;17.70;79.96;100993.78;5270229;22;20048;-71
2022/09/02 04:46:32;;;;;;;1.48;0.80;;;17.30;88.30;;;17.72;79.96;100993.81;5207974;28;20048;-71
2022/09/02 04:49:05;;;;;;;;;;;17.30;88.30;;;17.72;80.09;100999.09;5203237;28;20064;-71
2022/09/02 04:51:38;;;;;;;0.98;0.77;;;17.30;88.40;;;17.72;79.44;100992.06;5181476;28;19968;-72
2022/09/02 04:54:13;;;;;;;;;;;17.40;88.20;;;17.73;79.25;101004.34;5182403;28;20107;-72
2022/09/02 04:56:49;;;;;;;1.25;1.00;;;17.40;87.80;;;17.74;79.14;100998.25;5197753;28;19949;-71
2022/09/02 04:59:24;;;;;;;1.02;0.93;;;17.40;87.90;;;17.76;79.31;101003.53;5183159;28;20740;-71
2022/09/02 05:02:07;;;;;;;1.65;0.95;;;17.40;88.00;;;17.76;78.92;101003.53;5182138;28;20148;-72
2022/09/02 05:04:40;;;;;;;1.50;1.20;;;17.40;87.70;;;17.77;78.13;101000.91;5183662;28;20038;-71
2022/09/02 05:07:22;;;;;;;1.45;1.02;;;17.40;87.10;;;17.78;77.27;100999.13;5181310;28;20569;-72
2022/09/02 05:09:57;;;;;;;1.35;0.93;;;17.40;86.30;;;17.81;77.29;100993.91;5183044;28;20062;-70
2022/09/02 05:12:33;;;;;;;1.23;0.80;;;17.40;86.40;;;17.83;77.78;100997.44;5181866;28;20046;-70
2022/09/02 05:15:08;;;;;;;0.90;0.75;;;17.50;86.70;;;17.85;77.82;101003.59;5201436;28;20052;-71
2022/09/02 05:17:41;;;;;;;0.82;0.80;;;17.50;86.80;;;17.86;77.82;100995.69;5185008;28;20141;-73
2022/09/02 05:20:15;;;;;;;2.38;1.10;;;17.50;86.80;;;17.87;76.93;100991.31;5185192;28;20080;-72
2022/09/02 05:22:50;;;;;;;0.80;0.80;;;17.50;86.00;;;17.89;76.26;100992.22;5185390;28;20050;-71
2022/09/02 05:25:25;;;;;;;0.75;0.75;;;17.50;85.60;;;17.92;75.83;100994.84;5184877;28;20506;-70
2022/09/02 05:27:58;;;;;;;0.90;0.90;;;17.60;85.20;;;17.94;74.83;101000.16;5186223;28;20042;-71
2022/09/02 05:30:31;;;;;;;1.83;0.82;;;17.60;84.40;;;17.96;74.82;100999.28;5185410;28;20514;-71
2022/09/02 05:33:07;;;;;;;0.82;0.82;;;17.60;84.10;;;18.00;74.79;100997.56;5185184;28;20042;-71
2022/09/02 05:35:42;;;;;;;2.20;1.02;;;17.60;84.10;;;18.03;74.58;100998.47;5184705;28;20077;-70
2022/09/02 05:38:16;;;;;;;1.05;1.00;;;17.70;83.90;;;18.06;74.09;100998.50;5201255;28;20073;-70
2022/09/02 05:40:48;;;;;;;1.13;1.02;;;17.70;83.40;;;18.10;73.76;101002.91;5184860;28;20046;-71
2022/09/02 05:43:21;;;;;;;2.10;0.88;;;17.70;83.10;;;18.13;73.72;101002.97;5185134;28;20092;-70
2022/09/02 05:45:55;;;;;;;0.73;0.73;;;17.80;83.10;;;18.18;73.72;100997.69;5184169;28;20064;-70
2022/09/02 05:51:23;;;;;;;1.20;0.85;;;17.90;82.90;;;18.29;73.55;101000.41;5168314;28;20052;-71
2022/09/02 05:53:59;;;;;;;1.90;1.00;;;17.90;82.80;;;18.34;73.55;100996.94;5184964;28;20057;-70
2022/09/02 05:56:32;;;;;;;1.05;0.88;;;18.00;82.80;;;18.39;72.95;101002.25;5184188;28;20077;-71
2022/09/02 05:59:05;;;;;;;1.83;0.85;;;18.00;82.30;;;18.42;73.05;101007.53;5184652;28;20049;-71
2022/09/02 06:01:40;;;;;;;1.30;1.00;;;18.10;82.30;;;18.47;72.95;101012.84;5184409;28;20507;-71
2022/09/02 06:04:12;;;;;;;1.17;0.90;;;18.10;82.20;;;18.51;72.91;101004.94;5185377;28;20041;-54
2022/09/02 06:06:45;;;;;;;0.90;0.90;;;18.10;82.10;;;18.57;73.47;101010.25;5184109;28;20074;-54
2022/09/02 06:09:24;;;;;;;3.33;0.90;;;18.20;82.40;;;18.60;72.83;101012.91;5184624;28;20049;-54
2022/09/02 06:11:56;;;;;;;1.15;1.00;;;18.20;82.10;;;18.64;73.13;101009.41;5184659;28;20045;-55
2022/09/02 06:14:34;;;;;;;0.70;0.70;;;18.20;82.30;;;18.69;72.87;101005.06;5184590;28;20128;-53
2022/09/02 06:17:09;;;;;;;1.33;0.82;;;18.30;82.00;;;18.75;72.08;101005.97;5184212;28;20133;-54
2022/09/02 06:19:47;;;;;;;2.17;1.00;;;18.30;81.50;;;18.78;71.89;101000.69;5184347;28;20054;-56
2022/09/02 06:22:19;;;;;;;1.08;0.80;;;18.40;81.10;;;18.80;71.70;101002.50;5184278;28;20056;-54
2022/09/02 06:24:53;;;;;;;1.73;0.93;;;18.40;80.90;;;18.86;71.92;101002.53;5183993;28;20074;-54
2022/09/02 06:27:29;;;;;;;1.70;1.00;;;18.50;80.90;;;18.94;71.76;100998.13;5200246;28;20050;-55
2022/09/02 06:30:02;;;;;;;1.27;0.80;;;18.60;80.80;;;19.03;71.57;101007.84;5185498;28;20483;-55
2022/09/02 06:32:36;;;;;;;2.95;1.20;;;18.70;80.50;;;19.11;71.71;101003.50;5184091;28;20058;-54
2022/09/02 06:35:13;;;;;;;1.38;0.90;;;18.70;80.50;;;19.19;72.01;100991.19;5184185;28;20084;-54
2022/09/02 06:37:45;;;;;;;0.85;0.82;;;18.80;80.80;;;19.30;72.18;100998.25;5183732;28;20145;-54
2022/09/02 06:40:18;;;;;;;1.15;0.85;;;18.90;80.90;;;19.45;72.45;100995.66;5185229;28;20042;-54
2022/09/02 06:42:52;;;;;;;1.88;0.93;;;19.00;81.30;;;19.64;71.71;100994.81;5183990;28;20128;-54
2022/09/02 06:45:40;;;;;;;2.22;1.33;;;19.20;81.00;;;19.75;70.97;100997.44;5183569;28;20083;-54
2022/09/02 06:48:15;;;;;;;1.08;1.00;;;19.30;80.20;;;19.86;70.66;100995.69;5183899;28;20453;-54
2022/09/02 06:50:47;;;;;;;1.25;1.10;;;19.40;79.80;;;19.94;70.30;101001.00;5183551;28;20471;-54
2022/09/02 06:53:20;;;;;;;1.35;1.02;;;19.50;79.50;;;19.98;70.70;100997.47;5183669;28;20569;-54
2022/09/02 06:55:53;;;;;;;0.80;0.80;;;19.50;79.60;;;20.04;70.85;100994.81;5183463;28;20060;-55
2022/09/02 06:58:26;;;;;;;0.93;0.90;;;19.60;79.70;;;20.09;70.77;101000.13;5183903;28;20568;-54
2022/09/02 07:00:59;;;;;;;1.63;1.02;;;19.60;79.60;;;20.13;70.93;100997.44;5183994;28;20399;-54
2022/09/02 07:06:23;;;;;;;1.10;1.00;;;19.70;80.00;;;20.31;71.23;100992.13;5183300;28;20045;-54
2022/09/02 07:08:57;;;;;;;2.67;1.23;;;19.80;80.00;;;20.40;70.88;100985.03;5183501;28;20057;-55
2022/09/02 07:11:30;;;;;;;3.58;1.20;;;19.90;79.80;;;20.48;70.47;100988.59;5184567;28;20124;-54
2022/09/02 07:14:02;;;;;;;1.88;0.95;;;19.90;79.50;;;20.73;70.64;100987.63;5183575;28;20073;-54
2022/09/02 07:16:38;;;;;;;1.23;0.82;;;20.10;79.60;;;20.85;69.21;100984.91;5183099;28;20050;-56
2022/09/02 07:19:12;;;;;;;2.53;1.50;;;20.20;78.30;;;20.86;68.50;100988.44;5183429;28;20136;-54
2022/09/02 07:21:44;;;;;;;;;;;20.30;77.30;;;20.82;68.53;100982.28;5183921;28;20054;-53
2022/09/02 07:24:18;;;;;;;1.20;1.10;;;20.40;77.20;;;21.00;68.56;100968.09;5199802;28;19932;-54
2022/09/02 07:26:51;;;;;;;1.65;1.08;;;20.50;77.20;;;21.36;67.52;100977.59;5183136;28;20534;-54
2022/09/02 07:29:25;;;;;;;2.22;1.23;;;20.70;76.60;;;21.65;66.96;100973.88;5184510;28;20045;-53
2022/09/02 07:31:58;;;;;;;1.98;1.10;;;21.00;75.90;;;22.02;66.80;100973.56;5183354;28;20053;-52
2022/09/02 07:34:32;;;;;;;1.85;1.00;;;21.30;75.80;;;22.51;65.40;100973.97;5183087;28;20133;-53
2022/09/02 07:37:05;;;;;;;1.95;1.17;;;21.70;74.70;;;22.79;63.29;100968.31;5182117;28;20038;-53
2022/09/02 07:39:38;;;;;;;1.42;1.08;;;22.10;72.30;;;23.04;63.16;100966.25;5183175;28;20049;-54
2022/09/02 07:42:11;;;;;;;2.65;1.20;;;22.30;72.20;;;23.35;61.57;100964.03;5183111;28;20100;-53
2022/09/02 07:44:43;;;;;;;2.00;1.17;;;22.60;70.10;;;23.65;61.20;100962.69;5182972;28;20053;-55
2022/09/02 07:47:15;;;;;;;2.10;1.13;;;22.90;69.90;;;23.83;59.99;100967.72;5182620;28;20398;-56
2022/09/02 07:49:52;;;;;;;1.85;1.10;;;23.10;68.70;;;24.04;59.45;100972.66;5182988;28;20414;-54
2022/09/02 07:52:25;;;;;;;1.48;1.08;;;23.30;68.10;;;24.20;58.78;100957.28;5183004;28;20052;-54
2022/09/02 07:55:00;;;;;;;1.50;1.13;;;23.50;67.00;;;24.39;58.17;100968.50;5183099;28;20046;-53
2022/09/02 07:57:34;;;;;;;1.58;1.02;;;23.60;66.20;;;24.43;56.91;100961.31;5182852;28;20045;-55
2022/09/02 08:00:11;;;;;;;1.67;1.10;;;23.70;64.70;;;24.42;56.97;100963.09;5182673;28;20050;-55
2022/09/02 08:02:47;;;;;;;3.47;1.25;;;23.70;64.40;;;24.34;56.78;100965.06;5184484;28;20054;-53
2022/09/02 08:05:29;;;;;;;2.30;1.23;;;23.70;64.30;;;24.50;56.35;100966.50;5183100;28;20344;-52
2022/09/02 08:08:01;;;;;;;1.67;1.20;;;23.70;64.20;;;24.60;56.39;100965.41;5182389;28;20050;-54
2022/09/02 08:10:35;;;;;;;1.95;1.30;;;23.80;64.30;;;24.87;56.65;100968.41;5182531;28;20050;-53
2022/09/02 08:13:08;;;;;;;2.13;1.23;;;23.90;64.70;;;25.18;55.47;100965.97;5184385;28;20037;-53
2022/09/02 08:15:42;;;;;;;1.60;1.17;;;24.10;63.60;;;25.38;55.08;100954.84;5183784;28;20064;-54
2022/09/02 08:18:14;;;;;;;1.58;1.13;;;24.30;63.20;;;25.79;54.64;100974.34;5183819;28;20046;-53
2022/09/02 08:20:47;;;;;;;1.85;1.20;;;24.50;63.10;;;26.31;53.38;100964.94;5183911;28;20108;-54
2022/09/02 08:23:20;;;;;;;1.27;0.95;;;24.80;62.00;;;26.91;52.80;100964.13;5182895;28;20069;-53
2022/09/02 08:25:53;;;;;;;1.85;1.00;;;25.10;61.60;;;27.67;51.12;100972.47;5183588;28;20054;-55
2022/09/02 08:28:26;;;;;;;2.95;1.10;;;25.60;60.50;;;28.10;49.40;100971.91;5183875;28;20042;-55
2022/09/02 08:30:58;;;;;;;1.55;1.02;;;25.90;58.80;;;28.69;49.36;100970.72;5183887;28;20053;-54
2022/09/02 08:33:31;;;;;;;0.95;0.82;;;26.30;59.70;;;29.72;48.01;100971.09;5183823;28;20133;-54
2022/09/02 08:36:09;;;;;;;2.42;1.10;;;26.90;58.80;;;30.74;46.13;100968.47;5183492;28;20046;-54
2022/09/02 08:38:42;;;;;;;1.40;1.02;;;27.70;56.80;;;31.74;44.51;100967.22;5182399;28;20065;-54
2022/09/02 08:41:22;;;;;;;2.08;1.10;;;28.60;55.10;;;32.26;43.47;100975.34;5183364;28;20050;-55
2022/09/02 08:43:58;;;;;;;1.88;1.10;;;29.20;53.60;;;32.19;43.06;100965.81;5183699;28;20049;-56
2022/09/02 08:46:34;;;;;;;1.00;0.90;;;29.50;52.40;;;31.88;42.90;100963.84;5183424;28;20414;-53
2022/09/02 08:49:11;;;;;;;1.85;0.93;;;29.40;51.80;;;31.90;43.04;100970.06;5186985;28;20069;-54
2022/09/02 08:51:50;;;;;;;2.45;1.10;;;29.50;51.80;;;31.90;42.60;100953.00;5188633;28;20152;-54
2022/09/02 08:54:31;;;;;;;1.30;1.05;;;29.50;51.30;;;32.01;42.74;100962.25;5188784;28;20096;-54
2022/09/02 08:57:03;;;;;;;1.73;1.15;;;29.60;51.30;;;32.20;42.65;100948.69;5188416;28;20042;-54
2022/09/02 08:59:36;;;;;;;1.38;1.10;;;29.80;51.10;;;32.04;42.34;100964.81;5188408;28;20054;-54
2022/09/02 09:02:20;;;;;;;1.70;1.15;;;29.70;50.70;;;31.65;42.47;100950.66;5188678;28;20096;-55
2022/09/02 09:05:07;;;;;;;2.58;1.13;;;29.60;50.30;;;31.11;43.49;100949.72;5186746;28;20064;-54
2022/09/02 09:07:53;;;;;;;2.08;1.20;;;29.30;50.90;;;30.61;43.25;100955.63;5187769;28;20046;-54
2022/09/02 09:10:36;;;;;;;2.13;1.15;;;29.00;50.90;;;30.15;44.67;100949.63;5187109;28;20128;-54
2022/09/02 09:13:40;;;;;;;1.75;1.10;;;28.80;51.40;;;29.76;44.94;100950.38;5187150;28;20041;-54
2022/09/02 09:16:21;;;;;;;1.38;0.98;;;28.60;51.30;;;29.35;45.46;100942.19;5186848;28;20128;-53
2022/09/02 09:19:03;;;;;;;2.13;1.02;;;28.40;51.70;;;29.09;46.39;100935.19;5186911;28;20042;-54
2022/09/02 09:21:35;;;;;;;1.92;1.05;;;28.30;52.30;;;28.83;46.56;100936.19;5186985;28;20558;-54
2022/09/02 09:24:26;;;;;;;1.08;0.98;;;28.00;52.40;;;28.73;47.01;100932.09;5186866;28;20042;-54
2022/09/02 09:26:59;;;;;;;4.00;1.13;;;27.90;52.80;;;28.77;47.63;100925.69;5186314;28;20057;-54
2022/09/02 09:29:35;;;;;;;3.67;1.23;;;27.90;53.30;;;28.74;47.33;100924.91;5186832;28;20127;-54
2022/09/02 09:32:20;;;;;;;3.45;1.02;;;27.90;53.00;;;28.70;46.20;100924.19;5186891;28;20569;-54
2022/09/02 09:35:02;;;;;;;1.33;1.00;;;27.90;52.90;;;28.73;45.54;100926.72;5185392;28;20585;-53
2022/09/02 09:37:37;;;;;;;2.38;0.93;;;27.90;51.60;;;28.65;45.72;100910.94;5186080;28;20046;-53
2022/09/02 09:40:32;;;;;;;1.25;1.10;;;27.80;51.60;;;28.43;45.90;100909.09;5186620;28;20133;-53
2022/09/02 09:43:14;;;;;;;1.38;0.90;;;27.70;51.80;;;28.41;46.32;100905.63;5186544;28;20392;-53
2022/09/02 09:45:48;;;;;;;1.17;0.90;;;27.60;52.00;;;28.50;45.88;100910.66;5186066;28;20042;-53
2022/09/02 09:48:29;;;;;;;1.08;0.98;;;27.60;51.60;;;28.60;46.01;100896.81;5186348;28;20402;-55
2022/09/02 09:51:14;;;;;;;1.58;1.13;;;27.70;52.00;;;28.65;45.25;100902.00;5186461;28;20049;-53
2022/09/02 09:53:47;;;;;;;1.33;1.10;;;27.80;51.40;;;28.60;45.83;100906.66;5186174;28;20053;-54
2022/09/02 09:56:31;;;;;;;1.70;1.20;;;27.70;51.60;;;28.79;45.33;100894.31;5185841;28;20057;-54
2022/09/02 09:59:03;;;;;;;1.92;0.93;;;27.90;51.90;;;28.85;44.46;100891.38;5185566;28;20522;-54
2022/09/02 10:01:35;;;;;;;2.42;1.00;;;27.90;50.70;;;28.80;44.48;100893.34;5186174;28;20049;-53
2022/09/02 10:04:10;;;;;;;1.80;1.00;;;27.90;50.30;;;28.78;43.76;100889.88;5186136;28;20052;-54
2022/09/02 10:06:47;;;;;;;1.67;0.90;;;28.00;49.80;;;28.55;43.46;100880.03;5185408;28;20050;-53
2022/09/02 10:09:35;;;;;;;1.90;0.95;;;27.80;49.50;;;28.50;44.46;100875.81;5185915;28;20521;-54
2022/09/02 10:12:11;;;;;;;1.58;1.15;;;27.70;50.40;;;28.50;44.06;100884.72;5186241;28;20138;-54
2022/09/02 10:14:46;;;;;;;0.85;0.82;;;27.70;50.00;;;28.61;43.87;100879.78;5185949;28;20096;-52
2022/09/02 10:17:32;;;;;;;0.90;0.80;;;27.70;49.80;;;28.76;43.57;100881.03;5185495;28;20034;-54
2022/09/02 10:20:14;;;;;;;1.30;1.05;;;27.80;49.70;;;28.93;42.50;100878.56;5185743;28;20137;-53
2022/09/02 10:23:13;;;;;;;0.80;0.63;;;27.90;49.00;;;28.95;42.21;100877.63;5186207;28;20058;-53
2022/09/02 10:26:04;;;;;;;1.63;1.10;;;28.00;48.70;;;29.03;41.85;100875.53;5185501;28;20442;-54
2022/09/02 10:29:05;;;;;;;2.72;0.80;;;28.10;48.10;;;28.79;41.43;100853.19;5184207;28;20077;-53
2022/09/02 10:31:50;;;;;;;3.53;1.20;;;28.00;47.50;;;28.52;42.26;100861.38;5200357;28;20118;-53
2022/09/02 10:34:33;;;;;;;1.25;1.05;;;27.70;48.20;;;28.54;41.87;100858.63;5185740;28;20056;-53
2022/09/02 10:37:14;;;;;;;2.25;0.90;;;27.70;48.10;;;28.66;41.56;100864.41;5185357;28;20126;-56
2022/09/02 10:40:08;;;;;;;0.68;0.68;;;27.80;48.00;;;28.84;41.03;100865.50;5185424;28;20050;-54
2022/09/02 10:42:53;;;;;;;1.45;0.85;;;27.90;47.60;;;28.79;40.02;100848.69;5185424;28;20046;-53
2022/09/02 10:45:36;;;;;;;1.10;0.90;;;27.90;46.40;;;28.73;40.38;100854.31;5185235;28;20074;-54
2022/09/02 10:48:25;;;;;;;0.95;0.80;;;27.90;46.90;;;28.83;40.75;100846.78;5185062;28;20042;-54
2022/09/02 10:51:06;;;;;;;2.55;0.90;;;27.90;47.20;;;28.98;40.02;100856.06;5185342;28;20125;-54
2022/09/02 10:54:00;;;;;;;1.60;0.80;;;28.00;46.40;;;28.90;40.00;100846.47;5185044;28;20133;-53